< < Back
Terminal Aerodrome Forecast


Current Version              Previous Versions:   1  2  3  4  5  6  7  8  9  

Terminal Aerodrome Forecast

833
FTUS44 KMOB 291138
TAFMOB
TAF
KMOB 291138Z 2912/3012 07004KT 3SM BR VCSH SCT003 BKN030
      TEMPO 2912/2913 1/2SM -SHRA FG BKN003
     FM291600 13009KT P6SM VCTS BKN040CB
     FM292100 16009KT P6SM SCT040 SCT200=

Latest METAR

232
SAUS80 KWBC 301600 CCA
MTRMOB
METAR KMOB 301556Z 12005KT 10SM SCT039 SCT250 28/18 A3011 RMK AO2 SLP194
T02780183


USA.gov is the U.S. government's official web portal to all federal, state and local government web resources and services.